createdAt,value
2022-10-01T00:01:09.202Z,15.20
2022-10-01T00:03:37.193Z,15.20
2022-10-01T00:06:11.928Z,15.22
2022-10-01T00:08:41.288Z,15.19
2022-10-01T00:11:13.668Z,15.23
2022-10-01T00:13:43.208Z,15.25
2022-10-01T00:16:16.560Z,15.28
2022-10-01T00:18:45.886Z,15.23
2022-10-01T00:21:18.508Z,15.25
2022-10-01T00:23:46.310Z,15.22
2022-10-01T00:26:21.297Z,15.23
2022-10-01T00:28:53.228Z,15.23
2022-10-01T00:31:20.265Z,15.22
2022-10-01T00:33:47.768Z,15.20
2022-10-01T00:36:14.808Z,15.18
2022-10-01T00:38:42.428Z,15.18
2022-10-01T00:41:10.286Z,15.18
2022-10-01T00:43:42.728Z,15.19
2022-10-01T00:46:18.829Z,15.18
2022-10-01T00:49:15.629Z,15.19
2022-10-01T00:51:54.069Z,15.18
2022-10-01T00:54:37.730Z,15.13
2022-10-01T00:57:06.226Z,15.10
2022-10-01T00:59:34.188Z,15.13
2022-10-01T01:02:01.295Z,15.15
2022-10-01T01:04:28.438Z,15.14
2022-10-01T01:06:58.580Z,15.12
2022-10-01T01:09:33.009Z,15.12
2022-10-01T01:12:25.068Z,15.12
2022-10-01T01:15:29.322Z,15.08
2022-10-01T01:18:11.529Z,15.10
2022-10-01T01:21:07.100Z,15.07
2022-10-01T01:23:47.439Z,15.01
2022-10-01T01:26:33.268Z,15.03
2022-10-01T01:29:08.068Z,15.00
2022-10-01T01:31:46.611Z,15.00
2022-10-01T01:34:19.418Z,14.98
2022-10-01T01:36:54.668Z,14.96
2022-10-01T01:39:26.168Z,14.94
2022-10-01T01:41:59.728Z,14.93
2022-10-01T01:44:32.308Z,14.93
2022-10-01T01:47:02.128Z,14.91
2022-10-01T01:49:30.128Z,14.90
2022-10-01T01:52:01.128Z,14.90
2022-10-01T01:54:29.768Z,14.88
2022-10-01T01:56:59.108Z,14.82
2022-10-01T01:59:27.608Z,14.83
2022-10-01T02:01:54.731Z,14.75
2022-10-01T02:04:32.389Z,14.72
2022-10-01T02:07:08.229Z,14.70
2022-10-01T02:10:18.670Z,14.66
2022-10-01T02:13:11.049Z,14.60
2022-10-01T02:16:01.602Z,14.55
2022-10-01T02:18:48.388Z,14.48
2022-10-01T02:21:24.568Z,14.46
2022-10-01T02:23:54.468Z,14.40
2022-10-01T02:26:24.253Z,14.38
2022-10-01T02:28:55.148Z,14.37
2022-10-01T02:31:23.529Z,14.35
2022-10-01T02:33:55.608Z,14.24
2022-10-01T02:36:26.469Z,14.25
2022-10-01T02:38:56.349Z,14.24
2022-10-01T02:41:30.710Z,14.24
2022-10-01T02:44:03.087Z,14.23
2022-10-01T02:46:42.348Z,14.22
2022-10-01T02:49:09.989Z,14.18
2022-10-01T02:52:12.268Z,14.19
2022-10-01T02:55:26.368Z,14.17
2022-10-01T02:57:53.788Z,14.14
2022-10-01T03:00:21.553Z,14.13
2022-10-01T03:02:49.491Z,14.11
2022-10-01T03:05:17.609Z,14.10
2022-10-01T03:07:44.568Z,14.07
2022-10-01T03:10:12.472Z,14.04
2022-10-01T03:12:44.328Z,14.04
2022-10-01T03:15:15.530Z,14.03
2022-10-01T03:17:43.068Z,14.02
2022-10-01T03:20:10.428Z,14.01
2022-10-01T03:22:37.469Z,13.98
2022-10-01T03:25:04.968Z,13.92
2022-10-01T03:27:31.968Z,13.91
2022-10-01T03:29:58.970Z,13.89
2022-10-01T03:32:26.028Z,13.79
2022-10-01T03:34:52.987Z,13.74
2022-10-01T03:37:20.029Z,13.68
2022-10-01T03:39:47.348Z,13.64
2022-10-01T03:42:15.445Z,13.62
2022-10-01T03:44:43.588Z,13.61
2022-10-01T03:47:11.412Z,13.61
2022-10-01T03:49:38.588Z,13.61
2022-10-01T03:52:06.787Z,13.61
2022-10-01T03:54:33.856Z,13.60
2022-10-01T03:57:01.199Z,13.61
2022-10-01T03:59:28.328Z,13.58
2022-10-01T04:01:55.894Z,13.56
2022-10-01T04:04:23.256Z,13.60
2022-10-01T04:06:50.388Z,13.60
2022-10-01T04:09:17.396Z,13.61
2022-10-01T04:11:44.873Z,13.61
2022-10-01T04:14:11.909Z,13.61
2022-10-01T04:16:38.912Z,13.60
2022-10-01T04:19:05.929Z,13.59
2022-10-01T04:21:33.325Z,13.57
2022-10-01T04:24:01.285Z,13.55
2022-10-01T04:26:28.281Z,13.58
2022-10-01T04:28:55.190Z,13.56
2022-10-01T04:31:25.027Z,13.59
2022-10-01T04:33:57.763Z,13.61
2022-10-01T04:36:25.548Z,13.60
2022-10-01T04:38:58.020Z,13.59
2022-10-01T04:41:30.850Z,13.61
2022-10-01T04:44:00.297Z,13.58
2022-10-01T04:46:29.477Z,13.59
2022-10-01T04:48:56.521Z,13.60
2022-10-01T04:51:23.431Z,13.57
2022-10-01T04:53:50.527Z,13.53
2022-10-01T04:56:17.612Z,13.58
2022-10-01T04:58:44.664Z,13.58
2022-10-01T05:01:11.703Z,13.59
2022-10-01T05:03:38.692Z,13.57
2022-10-01T05:06:05.671Z,13.59
2022-10-01T05:08:32.641Z,13.59
2022-10-01T05:11:00.709Z,13.58
2022-10-01T05:13:30.517Z,13.63
2022-10-01T05:15:58.451Z,13.68
2022-10-01T05:18:25.501Z,13.71
2022-10-01T05:20:52.514Z,13.75
2022-10-01T05:23:19.455Z,13.78
2022-10-01T05:25:47.288Z,13.78
2022-10-01T05:28:18.454Z,13.82
2022-10-01T05:30:49.022Z,13.86
2022-10-01T05:33:15.941Z,13.91
2022-10-01T05:35:42.911Z,13.95
2022-10-01T05:38:09.870Z,13.98
2022-10-01T05:40:37.079Z,14.01
2022-10-01T05:43:04.843Z,14.03
2022-10-01T05:45:32.779Z,14.08
2022-10-01T05:48:08.341Z,14.11
2022-10-01T05:50:40.379Z,14.12
2022-10-01T05:53:10.083Z,14.21
2022-10-01T05:55:37.273Z,14.22
2022-10-01T05:58:06.786Z,14.22
2022-10-01T06:00:34.716Z,14.25
2022-10-01T06:03:03.519Z,14.28
2022-10-01T06:05:32.714Z,14.28
2022-10-01T06:08:00.961Z,14.32
2022-10-01T06:10:31.183Z,14.37
2022-10-01T06:13:05.814Z,14.37
2022-10-01T06:15:37.720Z,14.43
2022-10-01T06:18:07.181Z,14.43
2022-10-01T06:20:34.750Z,14.47
2022-10-01T06:23:02.679Z,14.49
2022-10-01T06:25:29.963Z,14.50
2022-10-01T06:28:00.702Z,14.55
2022-10-01T06:30:29.991Z,14.61
2022-10-01T06:33:02.913Z,14.68
2022-10-01T06:35:33.501Z,14.72
2022-10-01T06:38:03.733Z,14.73
2022-10-01T06:40:31.391Z,14.75
2022-10-01T06:42:58.971Z,14.77
2022-10-01T06:45:27.374Z,14.78
2022-10-01T06:48:03.514Z,14.80
2022-10-01T06:50:32.753Z,14.82
2022-10-01T06:53:00.450Z,14.87
2022-10-01T06:55:33.712Z,14.91
2022-10-01T06:58:03.041Z,14.92
2022-10-01T07:00:32.357Z,14.99
2022-10-01T07:02:59.803Z,15.05
2022-10-01T07:05:28.002Z,15.09
2022-10-01T07:07:55.041Z,15.09
2022-10-01T07:10:23.348Z,15.14
2022-10-01T07:12:50.750Z,15.18
2022-10-01T07:15:19.802Z,15.23
2022-10-01T07:17:51.905Z,15.23
2022-10-01T07:20:20.762Z,15.28
2022-10-01T07:22:48.961Z,15.28
2022-10-01T07:25:15.820Z,15.17
2022-10-01T07:27:42.761Z,15.23
2022-10-01T07:30:10.171Z,15.21
2022-10-01T07:32:37.104Z,15.25
2022-10-01T07:35:06.023Z,15.33
2022-10-01T07:37:33.057Z,15.45
2022-10-01T07:40:03.066Z,15.53
2022-10-01T07:42:33.601Z,15.61
2022-10-01T07:45:00.512Z,15.51
2022-10-01T07:47:27.481Z,15.63
2022-10-01T07:49:54.383Z,15.67
2022-10-01T07:52:21.330Z,15.61
2022-10-01T07:54:48.780Z,15.79
2022-10-01T07:57:15.721Z,15.85
2022-10-01T07:59:43.072Z,15.93
2022-10-01T08:02:17.961Z,16.04
2022-10-01T08:05:03.675Z,16.14
2022-10-01T08:07:32.159Z,16.25
2022-10-01T08:09:59.121Z,16.29
2022-10-01T08:12:30.622Z,16.43
2022-10-01T08:14:57.823Z,16.51
2022-10-01T08:17:29.226Z,16.65
2022-10-01T08:19:56.559Z,16.79
2022-10-01T08:22:23.461Z,16.91
2022-10-01T08:24:50.381Z,17.05
2022-10-01T08:27:17.401Z,17.20
2022-10-01T08:29:44.281Z,17.27
2022-10-01T08:32:11.403Z,17.35
2022-10-01T08:34:38.392Z,17.33
2022-10-01T08:37:05.619Z,17.40
2022-10-01T08:39:32.532Z,17.41
2022-10-01T08:42:08.089Z,17.43
2022-10-01T08:44:42.922Z,17.46
2022-10-01T08:47:27.782Z,17.48
2022-10-01T08:50:00.831Z,17.43
2022-10-01T08:52:37.220Z,17.56
2022-10-01T08:55:14.152Z,17.58
2022-10-01T08:57:50.259Z,17.61
2022-10-01T09:00:19.797Z,17.61
2022-10-01T09:02:48.002Z,17.62
2022-10-01T09:05:22.062Z,17.63
2022-10-01T09:07:55.044Z,17.57
2022-10-01T09:10:43.581Z,17.62
2022-10-01T09:13:35.212Z,17.63
2022-10-01T09:16:14.109Z,17.60
2022-10-01T09:19:01.431Z,17.57
2022-10-01T09:21:47.511Z,17.47
2022-10-01T09:24:16.928Z,17.48
2022-10-01T09:26:52.992Z,17.46
2022-10-01T09:29:30.240Z,17.51
2022-10-01T09:32:01.468Z,17.57
2022-10-01T09:34:34.203Z,17.56
2022-10-01T09:37:04.941Z,17.65
2022-10-01T09:39:44.001Z,17.74
2022-10-01T09:42:11.099Z,17.73
2022-10-01T09:44:38.120Z,17.90
2022-10-01T09:47:20.491Z,18.02
2022-10-01T09:49:49.271Z,18.09
2022-10-01T09:52:34.829Z,18.17
2022-10-01T09:55:31.031Z,18.26
2022-10-01T09:58:11.581Z,18.30
2022-10-01T10:00:39.623Z,18.33
2022-10-01T10:03:07.312Z,18.36
2022-10-01T10:05:43.649Z,18.40
2022-10-01T10:08:43.122Z,18.40
2022-10-01T10:11:12.029Z,18.39
2022-10-01T10:13:51.061Z,18.37
2022-10-01T10:16:26.613Z,18.34
2022-10-01T10:19:02.502Z,18.33
2022-10-01T10:21:34.151Z,18.42
2022-10-01T10:24:04.740Z,18.46
2022-10-01T10:26:35.706Z,18.52
2022-10-01T10:29:04.888Z,18.65
2022-10-01T10:31:44.197Z,18.72
2022-10-01T10:34:26.780Z,18.78
2022-10-01T10:36:59.476Z,18.80
2022-10-01T10:39:33.015Z,18.91
2022-10-01T10:42:05.278Z,18.90
2022-10-01T10:44:40.091Z,19.00
2022-10-01T10:47:11.995Z,19.09
2022-10-01T10:49:46.326Z,19.18
2022-10-01T10:52:30.246Z,19.24
2022-10-01T10:54:59.211Z,19.23
2022-10-01T10:57:33.061Z,19.18
2022-10-01T11:00:14.432Z,19.21
2022-10-01T11:13:34.359Z,18.55
2022-10-01T11:16:20.322Z,18.51
2022-10-01T11:19:22.036Z,18.56
2022-10-01T11:22:09.881Z,18.56
2022-10-01T11:24:46.231Z,18.59
2022-10-01T11:27:33.589Z,18.67
2022-10-01T11:30:05.771Z,18.67
2022-10-01T11:32:42.003Z,18.73
2022-10-01T11:35:29.186Z,18.79
2022-10-01T11:38:30.041Z,18.81
2022-10-01T11:41:16.280Z,18.76
2022-10-01T11:43:46.561Z,18.80
2022-10-01T11:46:35.318Z,18.74
2022-10-01T11:49:28.202Z,18.77
2022-10-01T11:52:25.095Z,18.68
2022-10-01T11:55:20.813Z,18.64
2022-10-01T11:58:14.482Z,18.72
2022-10-01T12:00:44.419Z,18.68
2022-10-01T12:03:23.093Z,18.60
2022-10-01T12:05:51.569Z,18.73
2022-10-01T12:08:25.811Z,18.62
2022-10-01T12:11:05.742Z,18.74
2022-10-01T12:13:45.120Z,18.75
2022-10-01T12:16:34.320Z,18.72
2022-10-01T12:19:06.003Z,18.79
2022-10-01T12:22:03.239Z,18.84
2022-10-01T12:24:36.951Z,18.84
2022-10-01T12:27:29.441Z,18.84
2022-10-01T12:29:59.851Z,18.89
2022-10-01T12:32:48.450Z,18.91
2022-10-01T12:35:49.131Z,19.02
2022-10-01T12:38:37.073Z,19.13
2022-10-01T12:41:16.255Z,19.27
2022-10-01T12:44:03.171Z,19.43
2022-10-01T12:46:52.083Z,19.53
2022-10-01T12:49:28.062Z,19.55
2022-10-01T12:52:13.443Z,19.61
2022-10-01T12:55:23.612Z,19.61
2022-10-01T12:57:59.292Z,19.60
2022-10-01T13:00:32.119Z,19.60
2022-10-01T13:03:37.663Z,19.58
2022-10-01T13:06:22.556Z,19.56
2022-10-01T13:09:24.474Z,19.50
2022-10-01T13:12:01.481Z,19.43
2022-10-01T13:14:29.671Z,19.41
2022-10-01T13:17:01.862Z,19.40
2022-10-01T13:20:03.571Z,19.35
2022-10-01T13:22:59.080Z,19.29
2022-10-01T13:25:48.852Z,19.25
2022-10-01T13:28:27.178Z,19.18
2022-10-01T13:31:12.184Z,19.10
2022-10-01T13:33:40.763Z,19.03
2022-10-01T13:36:09.682Z,19.01
2022-10-01T13:38:46.701Z,18.94
2022-10-01T13:41:24.649Z,18.91
2022-10-01T13:44:10.275Z,18.85
2022-10-01T13:46:51.520Z,18.85
2022-10-01T13:49:27.681Z,18.78
2022-10-01T13:51:56.022Z,18.74
2022-10-01T13:54:48.508Z,18.64
2022-10-01T13:57:31.601Z,18.65
2022-10-01T14:00:19.033Z,18.60
2022-10-01T14:03:01.704Z,18.57
2022-10-01T14:05:39.792Z,18.52
2022-10-01T14:08:15.191Z,18.46
2022-10-01T14:11:10.232Z,18.48
2022-10-01T14:14:12.291Z,18.45
2022-10-01T14:16:45.972Z,18.45
2022-10-01T14:19:25.344Z,18.46
2022-10-01T14:22:10.591Z,18.42
2022-10-01T14:25:04.111Z,18.44
2022-10-01T14:27:48.583Z,18.38
2022-10-01T14:30:20.911Z,18.34
2022-10-01T14:33:06.019Z,18.36
2022-10-01T14:35:34.087Z,18.35
2022-10-01T14:38:02.060Z,18.35
2022-10-01T14:40:41.731Z,18.37
2022-10-01T14:43:17.462Z,18.36
2022-10-01T14:46:12.874Z,18.31
2022-10-01T14:48:40.822Z,18.29
2022-10-01T14:51:23.481Z,18.26
2022-10-01T14:53:51.401Z,18.29
2022-10-01T14:56:18.441Z,18.29
2022-10-01T14:58:52.753Z,18.27
2022-10-01T15:01:21.770Z,18.22
2022-10-01T15:03:50.255Z,18.23
2022-10-01T15:06:20.651Z,18.24
2022-10-01T15:08:52.521Z,18.16
2022-10-01T15:11:32.030Z,18.15
2022-10-01T15:14:07.541Z,18.09
2022-10-01T15:16:36.689Z,18.04
2022-10-01T15:19:10.201Z,18.02
2022-10-01T15:21:52.881Z,17.98
2022-10-01T15:24:40.413Z,17.99
2022-10-01T15:27:10.061Z,17.98
2022-10-01T15:29:42.291Z,17.96
2022-10-01T15:32:16.926Z,17.93
2022-10-01T15:34:53.781Z,17.90
2022-10-01T15:37:32.644Z,17.89
2022-10-01T15:40:00.973Z,17.87
2022-10-01T15:42:34.442Z,17.84
2022-10-01T15:45:07.318Z,17.83
2022-10-01T15:47:49.561Z,17.85
2022-10-01T15:50:20.593Z,17.77
2022-10-01T15:52:54.413Z,17.72
2022-10-01T15:55:29.969Z,17.69
2022-10-01T15:58:02.988Z,17.64
2022-10-01T16:00:34.925Z,17.59
2022-10-01T16:03:02.953Z,17.52
2022-10-01T16:05:37.877Z,17.50
2022-10-01T16:08:05.791Z,17.50
2022-10-01T16:10:36.765Z,17.48
2022-10-01T16:13:32.054Z,17.45
2022-10-01T16:16:21.937Z,17.40
2022-10-01T16:18:54.246Z,17.34
2022-10-01T16:21:22.722Z,17.28
2022-10-01T16:23:53.201Z,17.28
2022-10-01T16:26:33.007Z,17.23
2022-10-01T16:29:13.651Z,17.21
2022-10-01T16:31:44.364Z,17.15
2022-10-01T16:34:16.981Z,17.12
2022-10-01T16:36:45.118Z,17.03
2022-10-01T16:39:16.499Z,16.96
2022-10-01T16:41:56.577Z,16.89
2022-10-01T16:44:38.421Z,16.83
2022-10-01T16:47:05.682Z,16.76
2022-10-01T16:49:33.181Z,16.74
2022-10-01T16:52:00.172Z,16.69
2022-10-01T16:54:28.590Z,16.69
2022-10-01T16:56:55.911Z,16.66
2022-10-01T16:59:26.173Z,16.63
2022-10-01T17:01:55.989Z,16.64
2022-10-01T17:04:23.669Z,16.62
2022-10-01T17:06:50.844Z,16.57
2022-10-01T17:09:17.741Z,16.56
2022-10-01T17:11:45.279Z,16.49
2022-10-01T17:14:16.881Z,16.45
2022-10-01T17:16:43.978Z,16.42
2022-10-01T17:19:13.260Z,16.41
2022-10-01T17:21:40.761Z,16.39
2022-10-01T17:24:12.041Z,16.36
2022-10-01T17:26:45.616Z,16.38
2022-10-01T17:29:14.092Z,16.39
2022-10-01T17:31:44.868Z,16.39
2022-10-01T17:34:13.283Z,16.33
2022-10-01T17:36:40.321Z,16.39
2022-10-01T17:39:08.671Z,16.39
2022-10-01T17:41:36.171Z,16.43
2022-10-01T17:44:03.672Z,16.26
2022-10-01T17:46:31.188Z,16.07
2022-10-01T17:48:58.360Z,16.12
2022-10-01T17:51:26.049Z,16.00
2022-10-01T17:53:55.151Z,16.06
2022-10-01T17:56:22.842Z,16.05
2022-10-01T17:58:49.934Z,15.94
2022-10-01T18:01:20.131Z,15.98
2022-10-01T18:03:47.871Z,15.81
2022-10-01T18:06:16.346Z,15.93
2022-10-01T18:08:58.718Z,15.94
2022-10-01T18:11:27.759Z,15.93
2022-10-01T18:13:55.195Z,15.90
2022-10-01T18:16:23.154Z,15.88
2022-10-01T18:21:46.733Z,15.86
2022-10-01T18:24:15.076Z,15.84
2022-10-01T18:26:41.881Z,15.82
2022-10-01T18:29:09.041Z,15.79
2022-10-01T18:31:39.573Z,15.72
2022-10-01T18:34:33.923Z,15.72
2022-10-01T18:37:24.116Z,15.66
2022-10-01T18:40:04.241Z,15.66
2022-10-01T18:42:43.232Z,15.64
2022-10-01T18:45:21.846Z,15.65
2022-10-01T18:47:58.523Z,15.65
2022-10-01T18:50:50.442Z,15.66
2022-10-01T18:53:20.082Z,15.66
2022-10-01T18:56:14.952Z,15.65
2022-10-01T18:58:56.390Z,15.67
2022-10-01T19:01:29.287Z,15.64
2022-10-01T19:04:38.946Z,15.59
2022-10-01T19:07:17.223Z,15.57
2022-10-01T19:10:20.019Z,15.57
2022-10-01T19:13:09.202Z,15.55
2022-10-01T19:15:47.253Z,15.54
2022-10-01T19:18:14.063Z,15.52
2022-10-01T19:21:03.882Z,15.52
2022-10-01T19:23:43.282Z,15.46
2022-10-01T19:26:18.932Z,15.46
2022-10-01T19:28:51.701Z,15.43
2022-10-01T19:31:32.301Z,15.51
2022-10-01T19:34:34.401Z,15.39
2022-10-01T19:37:28.154Z,15.32
2022-10-01T19:40:03.065Z,15.27
2022-10-01T19:42:34.422Z,15.23
2022-10-01T19:45:20.130Z,15.23
2022-10-01T19:48:06.634Z,15.14
2022-10-01T19:50:38.553Z,15.07
2022-10-01T19:53:22.272Z,15.07
2022-10-01T19:55:53.353Z,15.00
2022-10-01T19:58:21.871Z,15.00
2022-10-01T20:00:54.722Z,14.97
2022-10-01T20:03:32.289Z,14.97
2022-10-01T20:06:25.249Z,14.94
2022-10-01T20:08:57.826Z,14.95
2022-10-01T20:11:58.722Z,14.80
2022-10-01T20:15:08.637Z,14.84
2022-10-01T20:17:50.891Z,14.80
2022-10-01T20:21:03.618Z,14.80
2022-10-01T20:24:03.901Z,14.78
2022-10-01T20:27:02.171Z,14.75
2022-10-01T20:29:38.401Z,14.73
2022-10-01T20:32:36.481Z,14.71
2022-10-01T20:35:23.753Z,14.70
2022-10-01T20:38:15.385Z,14.65
2022-10-01T20:40:57.451Z,14.61
2022-10-01T20:43:38.161Z,14.55
2022-10-01T20:46:40.672Z,14.54
2022-10-01T20:49:35.620Z,14.52
2022-10-01T20:52:30.312Z,14.48
2022-10-01T20:55:14.067Z,14.46
2022-10-01T20:57:40.973Z,14.42
2022-10-01T21:00:18.849Z,14.41
2022-10-01T21:03:11.252Z,14.39
2022-10-01T21:05:43.541Z,14.44
2022-10-01T21:08:46.352Z,14.37
2022-10-01T21:11:22.380Z,14.35
2022-10-01T21:13:52.164Z,14.33
2022-10-01T21:16:28.983Z,14.29
2022-10-01T21:18:58.931Z,14.25
2022-10-01T21:21:55.048Z,14.21
2022-10-01T21:24:37.041Z,14.17
2022-10-01T21:27:18.870Z,14.14
2022-10-01T21:29:45.872Z,14.09
2022-10-01T21:32:21.882Z,14.01
2022-10-01T21:35:07.669Z,13.96
2022-10-01T21:43:43.831Z,13.91
2022-10-01T21:46:39.208Z,13.84
2022-10-01T21:49:12.032Z,13.82
2022-10-01T21:51:51.381Z,13.78
2022-10-01T21:54:53.053Z,13.74
2022-10-01T21:57:43.390Z,13.70
2022-10-01T22:00:23.481Z,13.66
2022-10-01T22:03:23.020Z,13.58
2022-10-01T22:05:57.112Z,13.55
2022-10-01T22:08:27.851Z,13.48
2022-10-01T22:11:02.882Z,13.44
2022-10-01T22:13:34.213Z,13.39
2022-10-01T22:16:07.496Z,13.34
2022-10-01T22:18:40.440Z,13.35
2022-10-01T22:21:20.599Z,13.29
2022-10-01T22:23:53.736Z,13.16
2022-10-01T22:26:26.951Z,13.21
2022-10-01T22:28:56.200Z,13.23
2022-10-01T22:31:29.348Z,13.25
2022-10-01T22:34:03.354Z,13.23
2022-10-01T22:36:46.641Z,13.19
2022-10-01T22:39:25.481Z,13.17
2022-10-01T22:41:55.289Z,13.12
2022-10-01T22:44:23.571Z,13.08
2022-10-01T22:47:16.502Z,13.01
2022-10-01T22:49:56.951Z,13.00
2022-10-01T22:52:49.583Z,12.98
2022-10-01T22:55:34.641Z,12.92
2022-10-01T22:58:10.472Z,12.90
2022-10-01T23:00:47.859Z,12.84
2022-10-01T23:03:17.992Z,12.79
2022-10-01T23:06:06.382Z,12.73
2022-10-01T23:08:44.667Z,12.72
2022-10-01T23:11:47.013Z,12.63
2022-10-01T23:14:13.952Z,12.69
2022-10-01T23:17:02.091Z,12.67
2022-10-01T23:20:04.061Z,12.60
2022-10-01T23:23:26.410Z,12.60
2022-10-01T23:26:21.451Z,12.57
2022-10-01T23:29:08.539Z,12.58
2022-10-01T23:31:35.510Z,12.57
2022-10-01T23:34:47.470Z,12.59
2022-10-01T23:37:44.079Z,12.59
2022-10-01T23:40:20.441Z,12.55
2022-10-01T23:42:57.101Z,12.46
2022-10-01T23:45:27.145Z,12.45
2022-10-01T23:47:57.033Z,12.49
2022-10-01T23:50:40.691Z,12.44
2022-10-01T23:53:14.071Z,12.45
2022-10-01T23:56:15.874Z,12.36
2022-10-01T23:58:48.750Z,12.38
